Time;durP1;ratioP1;P1;durP2;ratioP2;P2;SDS_P1;SDS_P2;PMS_P1;PMS_P2;Temp;Humidity;BMP_temperature;BMP_pressure;BME280_temperature;BME280_humidity;BME280_pressure;Samples;Min_cycle;Max_cycle;Signal;HPM_P1;HPM_P2
2023/12/27 00:00:45;;;;;;;23.90;10.60;;;;;;;3.07;100.00;101932.19;5284253;28;20060;-72
2023/12/27 00:03:16;;;;;;;25.37;12.50;;;;;;;3.05;100.00;101925.25;5284020;28;20032;-72
2023/12/27 00:05:47;;;;;;;30.60;10.87;;;;;;;2.98;100.00;101925.84;5283829;28;20029;-72
2023/12/27 00:08:19;;;;;;;25.57;10.20;;;;;;;2.96;100.00;101928.34;5284789;28;20040;-72
2023/12/27 00:10:50;;;;;;;19.50;10.33;;;;;;;2.90;100.00;101926.44;5283837;28;20028;-72
2023/12/27 00:13:22;;;;;;;17.23;9.67;;;;;;;2.87;100.00;101910.00;5283969;28;20032;-72
2023/12/27 00:15:53;;;;;;;25.87;11.57;;;;;;;2.90;100.00;101911.00;5283863;28;20032;-72
2023/12/27 00:18:24;;;;;;;27.57;10.80;;;;;;;2.87;100.00;101910.00;5283684;28;20052;-72
2023/12/27 00:20:56;;;;;;;27.33;11.73;;;;;;;2.85;100.00;101916.78;5283974;28;20467;-72
2023/12/27 00:23:28;;;;;;;20.67;10.70;;;;;;;2.88;100.00;101922.03;5283932;28;20388;-72
2023/12/27 00:26:00;;;;;;;;;;;;;;;2.80;100.00;101921.78;5284390;28;20115;-72
2023/12/27 00:28:31;;;;;;;18.63;10.07;;;;;;;2.87;100.00;101921.19;5283476;28;20014;-72
2023/12/27 00:31:02;;;;;;;20.00;10.60;;;;;;;2.87;100.00;101920.31;5283638;28;20058;-72
2023/12/27 00:33:34;;;;;;;25.20;11.87;;;;;;;2.90;100.00;101918.72;5283701;28;20048;-72
2023/12/27 00:36:06;;;;;;;21.63;10.93;;;;;;;2.90;100.00;101908.41;5283866;28;20117;-72
2023/12/27 00:38:38;;;;;;;25.80;10.52;;;;;;;2.91;100.00;101911.84;5283428;28;20202;-72
2023/12/27 00:41:09;;;;;;;25.93;10.60;;;;;;;2.91;100.00;101911.84;5283574;28;20115;-72
2023/12/27 00:43:40;;;;;;;25.00;11.10;;;;;;;2.91;100.00;101910.19;5283313;28;20036;-72
2023/12/27 00:46:12;;;;;;;20.53;11.27;;;;;;;2.95;100.00;101903.44;5283401;28;20032;-72
2023/12/27 00:48:43;;;;;;;29.43;11.63;;;;;;;3.01;100.00;101903.66;5283564;28;20041;-72
2023/12/27 00:51:21;;;;;;;26.17;12.57;;;;;;;3.00;100.00;101901.91;5282888;28;20186;-72
2023/12/27 00:53:53;;;;;;;27.23;12.15;;;;;;;2.94;100.00;101914.56;5282809;28;20107;-72
2023/12/27 00:56:24;;;;;;;27.47;11.07;;;;;;;2.94;100.00;101914.56;5283108;28;20452;-72
2023/12/27 00:58:56;;;;;;;29.93;11.20;;;;;;;2.89;100.00;101916.94;5282670;28;20039;-73
2023/12/27 01:01:30;;;;;;;31.10;12.00;;;;;;;2.89;100.00;101921.25;5283375;28;20413;-73
2023/12/27 01:04:01;;;;;;;25.38;10.68;;;;;;;2.85;100.00;101912.53;5282971;28;20517;-73
2023/12/27 01:06:32;;;;;;;30.57;11.33;;;;;;;2.76;100.00;101904.44;5281894;28;20025;-73
2023/12/27 01:09:05;;;;;;;29.00;12.97;;;;;;;2.69;100.00;101898.19;5282833;28;20033;-73
2023/12/27 01:11:36;;;;;;;37.75;11.20;;;;;;;2.69;100.00;101892.19;5282708;28;20036;-73
2023/12/27 01:14:07;;;;;;;20.70;10.50;;;;;;;2.62;100.00;101897.91;5282709;28;20085;-73
2023/12/27 01:16:39;;;;;;;25.27;10.70;;;;;;;2.58;100.00;101893.44;5283193;28;20033;-73
2023/12/27 01:19:11;;;;;;;28.37;11.40;;;;;;;2.49;100.00;101886.28;5282333;28;20170;-72
2023/12/27 01:21:42;;;;;;;24.60;10.68;;;;;;;2.50;100.00;101888.03;5281196;28;20041;-72
2023/12/27 01:24:14;;;;;;;26.97;11.53;;;;;;;2.44;100.00;101886.09;5283057;28;20360;-72
2023/12/27 01:26:45;;;;;;;24.37;11.23;;;;;;;2.42;100.00;101879.16;5282480;28;20044;-73
2023/12/27 01:29:16;;;;;;;32.83;12.03;;;;;;;2.42;100.00;101882.59;5282629;28;20033;-73
2023/12/27 01:31:48;;;;;;;29.07;12.63;;;;;;;2.44;100.00;101891.25;5283153;28;20067;-74
2023/12/27 01:34:19;;;;;;;28.03;11.70;;;;;;;2.43;100.00;101880.88;5282545;28;20020;-72
2023/12/27 01:36:50;;;;;;;24.20;11.43;;;;;;;2.42;100.00;101886.88;5282307;28;20044;-73
2023/12/27 01:39:22;;;;;;;24.80;11.60;;;;;;;2.42;100.00;101884.28;5281137;28;20029;-73
2023/12/27 01:41:54;;;;;;;24.23;10.67;;;;;;;2.40;100.00;101889.38;5282390;28;20040;-73
2023/12/27 01:44:25;;;;;;;29.90;12.00;;;;;;;2.41;100.00;101891.13;5282889;28;20068;-72
2023/12/27 01:46:57;;;;;;;22.33;11.07;;;;;;;2.39;100.00;101899.63;5282824;28;20021;-72
2023/12/27 01:49:28;;;;;;;24.83;10.70;;;;;;;2.42;100.00;101899.75;5282329;28;20055;-72
2023/12/27 01:52:00;;;;;;;27.00;11.17;;;;;;;2.45;100.00;101897.28;5282617;28;20112;-73
2023/12/27 01:54:31;;;;;;;31.90;12.03;;;;;;;2.43;100.00;101904.94;5282404;28;20021;-73
2023/12/27 01:57:03;;;;;;;29.40;13.17;;;;;;;2.46;100.00;101906.75;5281268;28;20040;-73
2023/12/27 01:59:34;;;;;;;27.07;11.67;;;;;;;2.55;100.00;101899.38;5282761;28;20467;-73
2023/12/27 02:02:06;;;;;;;26.57;12.27;;;;;;;2.61;100.00;101903.88;5282335;28;20028;-73
2023/12/27 02:04:37;;;;;;;27.33;11.53;;;;;;;2.61;100.00;101891.00;5282234;28;20120;-73
2023/12/27 02:07:10;;;;;;;27.97;11.03;;;;;;;2.61;100.00;101881.59;5282384;28;20033;-73
2023/12/27 02:09:41;;;;;;;26.85;11.43;;;;;;;2.64;100.00;101886.84;5282245;28;20036;-73
2023/12/27 02:12:26;;;;;;;34.20;11.47;;;;;;;2.67;100.00;101880.94;5282368;28;20452;-72
2023/12/27 02:14:57;;;;;;;27.45;11.90;;;;;;;2.70;100.00;101881.03;5282512;28;20441;-73
2023/12/27 02:17:29;;;;;;;26.53;11.93;;;;;;;2.73;100.00;101881.16;5283771;28;20031;-73
2023/12/27 02:20:01;;;;;;;26.80;12.33;;;;;;;2.74;100.00;101875.22;5286337;28;20528;-73
2023/12/27 02:22:35;;;;;;;29.80;11.60;;;;;;;2.79;100.00;101877.94;5286688;28;20021;-73
2023/12/27 02:25:07;;;;;;;34.53;12.38;;;;;;;2.78;100.00;101873.63;5286207;28;20103;-73
2023/12/27 02:27:38;;;;;;;27.40;11.77;;;;;;;2.80;100.00;101877.13;5285582;28;20164;-72
2023/12/27 02:30:22;;;;;;;32.40;11.87;;;;;;;2.80;100.00;101871.97;5285645;28;20502;-73
2023/12/27 02:32:53;;;;;;;27.70;11.43;;;;;;;2.78;100.00;101859.03;5286355;28;20028;-73
2023/12/27 02:35:25;;;;;;;29.53;10.60;;;;;;;2.74;100.00;101862.34;5285354;28;20040;-72
2023/12/27 02:37:56;;;;;;;24.60;10.80;;;;;;;2.72;100.00;101858.81;5286022;28;20083;-73
2023/12/27 02:40:27;;;;;;;26.70;11.47;;;;;;;2.73;100.00;101856.28;5285899;28;20043;-73
2023/12/27 02:42:59;;;;;;;29.73;11.60;;;;;;;2.73;100.00;101860.56;5286337;28;20028;-73
2023/12/27 02:45:30;;;;;;;28.23;11.53;;;;;;;2.70;100.00;101857.88;5286051;28;20163;-72
2023/12/27 02:48:02;;;;;;;28.90;10.13;;;;;;;2.68;100.00;101844.94;5284358;28;20036;-72
2023/12/27 02:50:33;;;;;;;28.00;10.60;;;;;;;2.69;100.00;101846.72;5285536;28;20121;-72
2023/12/27 02:53:05;;;;;;;31.60;12.93;;;;;;;2.70;100.00;101839.84;5285741;28;20510;-72
2023/12/27 02:55:36;;;;;;;28.40;11.07;;;;;;;2.70;100.00;101827.84;5285952;28;20460;-72
2023/12/27 02:58:07;;;;;;;26.80;10.57;;;;;;;2.72;100.00;101831.38;5285060;28;20145;-72
2023/12/27 03:00:39;;;;;;;28.20;10.60;;;;;;;2.73;100.00;101827.97;5285582;28;20028;-72
2023/12/27 03:03:10;;;;;;;31.63;10.63;;;;;;;2.77;100.00;101834.13;5285449;28;20468;-72
2023/12/27 03:05:42;;;;;;;28.03;10.43;;;;;;;2.80;100.00;101830.75;5285575;28;20441;-72
2023/12/27 03:08:13;;;;;;;28.90;11.40;;;;;;;2.80;100.00;101808.47;5285318;28;20116;-72
2023/12/27 03:10:44;;;;;;;30.43;11.67;;;;;;;2.83;100.00;101812.84;5285462;28;20032;-72
2023/12/27 03:13:16;;;;;;;26.57;10.97;;;;;;;2.86;100.00;101810.38;5285222;28;20043;-71
2023/12/27 03:15:47;;;;;;;26.67;10.77;;;;;;;2.90;100.00;101810.56;5284879;28;20112;-72
2023/12/27 03:18:18;;;;;;;30.83;11.53;;;;;;;2.91;100.00;101807.16;5284936;28;20526;-72
2023/12/27 03:20:50;;;;;;;23.40;10.07;;;;;;;2.96;100.00;101801.28;5284874;28;20115;-72
2023/12/27 03:23:21;;;;;;;33.67;12.10;;;;;;;2.97;100.00;101785.00;5284742;28;20035;-72
2023/12/27 03:25:55;;;;;;;23.40;10.73;;;;;;;3.00;100.00;101780.84;5284896;28;20056;-72
2023/12/27 03:28:27;;;;;;;35.03;11.98;;;;;;;3.02;100.00;101776.59;5283979;28;20036;-72
2023/12/27 03:30:58;;;;;;;23.03;11.13;;;;;;;3.04;100.00;101781.81;5284804;28;20028;-72
2023/12/27 03:33:30;;;;;;;31.10;12.93;;;;;;;3.08;100.00;101788.84;5285164;28;20536;-72
2023/12/27 03:36:01;;;;;;;29.57;11.57;;;;;;;3.09;100.00;101788.88;5284717;28;20049;-71
2023/12/27 03:38:32;;;;;;;30.40;11.40;;;;;;;3.10;100.00;101776.88;5284648;28;20029;-72
2023/12/27 03:41:04;;;;;;;28.47;10.70;;;;;;;3.07;100.00;101767.31;5284224;28;20119;-73
2023/12/27 03:43:35;;;;;;;23.07;10.70;;;;;;;3.06;100.00;101765.59;5283136;28;20028;-73
2023/12/27 03:46:07;;;;;;;27.60;12.43;;;;;;;3.03;100.00;101756.91;5284533;28;20029;-73
2023/12/27 03:48:38;;;;;;;27.37;11.17;;;;;;;3.01;100.00;101754.25;5284145;28;20032;-72
2023/12/27 03:51:11;;;;;;;29.93;12.80;;;;;;;3.01;100.00;101743.06;5284322;28;20090;-72
2023/12/27 03:53:42;;;;;;;31.88;11.75;;;;;;;2.99;100.00;101739.56;5284128;28;20036;-73
2023/12/27 03:56:14;;;;;;;31.47;11.50;;;;;;;2.98;100.00;101738.69;5284269;28;20037;-73
2023/12/27 03:58:45;;;;;;;26.33;10.77;;;;;;;3.00;100.00;101736.19;5284342;28;20029;-72
2023/12/27 04:01:23;;;;;;;24.83;12.93;;;;;;;3.04;100.00;101735.44;5284378;28;20025;-73
2023/12/27 04:03:54;;;;;;;25.88;11.75;;;;;;;3.11;100.00;101719.38;5284688;28;20028;-74
2023/12/27 04:06:26;;;;;;;24.27;13.17;;;;;;;3.15;100.00;101717.78;5284154;28;20557;-73
2023/12/27 04:08:57;;;;;;;22.63;12.07;;;;;;;3.20;100.00;101711.94;5284101;28;20081;-74
2023/12/27 04:11:29;;;;;;;25.17;11.80;;;;;;;3.24;100.00;101712.94;5283786;28;20040;-73
2023/12/27 04:14:00;;;;;;;24.60;12.93;;;;;;;3.27;100.00;101711.31;5284073;28;20112;-73
2023/12/27 04:16:32;;;;;;;27.37;12.33;;;;;;;3.34;100.00;101714.09;5284049;28;20043;-73
2023/12/27 04:19:03;;;;;;;27.47;11.77;;;;;;;3.37;100.00;101701.31;5283928;28;20495;-73
2023/12/27 04:21:34;;;;;;;25.00;12.20;;;;;;;3.42;100.00;101702.31;5284097;28;20112;-73
2023/12/27 04:24:06;;;;;;;28.77;13.43;;;;;;;3.45;100.00;101697.25;5283830;28;20093;-73
2023/12/27 04:26:38;;;;;;;28.90;12.87;;;;;;;3.49;100.00;101695.66;5283788;28;20134;-73
2023/12/27 04:29:10;;;;;;;24.85;13.18;;;;;;;3.53;100.00;101702.66;5283738;28;20528;-73
2023/12/27 04:31:42;;;;;;;31.43;12.77;;;;;;;3.54;100.00;101697.56;5283400;28;20111;-73
2023/12/27 04:34:13;;;;;;;32.87;12.73;;;;;;;3.60;100.00;101702.00;5283253;28;20086;-73
2023/12/27 04:36:44;;;;;;;32.83;14.57;;;;;;;3.63;100.00;101705.53;5283114;28;20400;-74
2023/12/27 04:39:16;;;;;;;36.40;11.77;;;;;;;3.66;100.00;101704.78;5283372;28;20051;-74
2023/12/27 04:41:47;;;;;;;24.93;10.93;;;;;;;3.70;100.00;101703.16;5282394;28;20063;-73
2023/12/27 04:44:19;;;;;;;34.23;13.40;;;;;;;3.73;100.00;101708.41;5283459;28;20029;-74
2023/12/27 04:46:50;;;;;;;27.73;11.57;;;;;;;3.77;100.00;101702.53;5283110;28;20127;-73
2023/12/27 04:49:21;;;;;;;23.33;11.40;;;;;;;3.79;100.00;101696.56;5281978;28;20033;-74
2023/12/27 04:51:53;;;;;;;21.93;10.93;;;;;;;3.80;100.00;101697.44;5282912;28;20071;-74
2023/12/27 04:54:24;;;;;;;24.23;11.30;;;;;;;3.83;100.00;101698.44;5283680;28;20368;-73
2023/12/27 04:56:55;;;;;;;26.40;10.23;;;;;;;3.84;100.00;101689.84;5283264;28;20464;-73
2023/12/27 04:59:27;;;;;;;23.60;9.60;;;;;;;3.88;100.00;101689.94;5283266;28;20035;-73
2023/12/27 05:01:58;;;;;;;27.13;11.57;;;;;;;3.89;100.00;101684.81;5283071;28;20028;-73
2023/12/27 05:04:29;;;;;;;31.77;9.93;;;;;;;3.92;100.00;101684.91;5283536;28;20492;-74
2023/12/27 05:07:01;;;;;;;21.73;10.87;;;;;;;3.94;100.00;101678.06;5282976;28;20059;-73
2023/12/27 05:09:32;;;;;;;27.67;11.97;;;;;;;3.95;100.00;101666.94;5282620;28;20032;-73
2023/12/27 05:12:04;;;;;;;30.60;10.93;;;;;;;3.98;100.00;101661.88;5282925;28;20127;-73
2023/12/27 05:14:35;;;;;;;26.93;10.47;;;;;;;4.00;100.00;101657.63;5282891;28;20052;-73
2023/12/27 05:17:07;;;;;;;23.93;10.47;;;;;;;4.04;100.00;101665.44;5282524;28;20107;-73
2023/12/27 05:19:39;;;;;;;23.20;10.50;;;;;;;4.04;100.00;101662.88;5282686;28;20094;-74
2023/12/27 05:22:10;;;;;;;28.60;11.77;;;;;;;4.04;100.00;101660.28;5282758;28;20036;-73
2023/12/27 05:24:42;;;;;;;24.20;10.27;;;;;;;4.05;100.00;101659.47;5282453;28;20032;-73
2023/12/27 05:27:13;;;;;;;22.73;10.67;;;;;;;4.05;100.00;101650.00;5282932;28;20067;-72
2023/12/27 05:29:45;;;;;;;23.70;10.00;;;;;;;4.07;100.00;101657.78;5283105;28;20127;-73
2023/12/27 05:32:16;;;;;;;30.53;10.00;;;;;;;4.09;100.00;101653.53;5281816;28;20036;-72
2023/12/27 05:34:48;;;;;;;24.80;10.20;;;;;;;4.09;100.00;101646.69;5281225;28;20093;-72
2023/12/27 05:37:20;;;;;;;22.67;9.77;;;;;;;4.10;100.00;101648.44;5282941;28;20080;-72
2023/12/27 05:39:51;;;;;;;26.47;11.00;;;;;;;4.12;100.00;101643.31;5282552;28;20033;-72
2023/12/27 05:42:24;;;;;;;26.27;10.77;;;;;;;4.12;100.00;101633.00;5282594;28;20153;-71
2023/12/27 05:44:55;;;;;;;21.42;9.80;;;;;;;4.13;100.00;101634.75;5283050;28;20043;-72
2023/12/27 05:47:26;;;;;;;24.43;9.83;;;;;;;4.14;100.00;101633.94;5282255;28;20120;-72
2023/12/27 05:49:58;;;;;;;24.37;10.50;;;;;;;4.14;100.00;101637.38;5282177;28;20033;-72
2023/12/27 05:52:29;;;;;;;32.93;11.73;;;;;;;4.18;100.00;101633.16;5281779;28;20035;-71
2023/12/27 05:55:00;;;;;;;25.03;11.37;;;;;;;4.18;100.00;101621.13;5281815;28;20042;-71
2023/12/27 05:57:32;;;;;;;27.87;11.03;;;;;;;4.22;100.00;101618.63;5281216;28;20036;-72
2023/12/27 06:00:06;;;;;;;31.00;12.43;;;;;;;4.22;100.00;101611.78;5282408;28;20036;-72
2023/12/27 06:02:39;;;;;;;20.13;10.40;;;;;;;4.23;100.00;101610.06;5282368;28;20028;-71
2023/12/27 06:05:11;;;;;;;25.13;11.68;;;;;;;4.24;100.00;101607.53;5282368;28;20112;-72
2023/12/27 06:07:42;;;;;;;23.00;11.27;;;;;;;4.26;100.00;101605.84;5282372;28;20116;-72
2023/12/27 06:10:14;;;;;;;22.40;10.80;;;;;;;4.27;100.00;101599.00;5281051;28;20056;-72
2023/12/27 06:12:47;;;;;;;28.55;12.10;;;;;;;4.29;100.00;101598.19;5282011;28;20037;-71
2023/12/27 06:15:18;;;;;;;26.20;13.13;;;;;;;4.30;100.00;101596.47;5282759;28;20511;-72
2023/12/27 06:17:50;;;;;;;30.17;12.17;;;;;;;4.32;100.00;101592.25;5281988;28;20115;-72
2023/12/27 06:20:21;;;;;;;25.83;11.13;;;;;;;4.33;100.00;101581.97;5282262;28;20439;-72
2023/12/27 06:22:52;;;;;;;19.83;11.23;;;;;;;4.37;100.00;101578.59;5282785;28;20035;-72
2023/12/27 06:25:24;;;;;;;28.63;12.50;;;;;;;4.38;100.00;101584.66;5281911;28;20449;-72
2023/12/27 06:27:55;;;;;;;25.60;13.20;;;;;;;4.38;100.00;101575.19;5280654;28;20445;-72
2023/12/27 06:30:27;;;;;;;22.83;12.17;;;;;;;4.42;100.00;101567.53;5282196;28;20432;-72
2023/12/27 06:32:58;;;;;;;21.97;12.87;;;;;;;4.44;100.00;101564.13;5282162;28;20422;-71
2023/12/27 06:35:30;;;;;;;24.13;12.13;;;;;;;4.45;100.00;101554.72;5281687;28;20107;-72
2023/12/27 06:38:01;;;;;;;24.60;11.87;;;;;;;4.47;100.00;101545.28;5280296;28;20053;-71
2023/12/27 06:40:32;;;;;;;19.03;11.67;;;;;;;4.49;100.00;101538.44;5282437;28;20052;-71
2023/12/27 06:43:04;;;;;;;19.30;13.07;;;;;;;4.52;100.00;101543.69;5282354;28;20029;-72
2023/12/27 06:45:35;;;;;;;22.57;13.20;;;;;;;4.56;100.00;101542.94;5282405;28;20142;-71
2023/12/27 06:48:07;;;;;;;23.97;12.17;;;;;;;4.58;100.00;101533.50;5282392;28;20526;-71
2023/12/27 06:50:38;;;;;;;24.83;13.37;;;;;;;4.61;100.00;101531.00;5282039;28;20028;-71
2023/12/27 06:53:09;;;;;;;19.53;11.93;;;;;;;4.69;100.00;101528.59;5282600;28;20032;-71
2023/12/27 06:55:41;;;;;;;22.10;12.47;;;;;;;4.71;100.00;101521.75;5282193;28;20040;-71
2023/12/27 06:58:12;;;;;;;20.63;12.80;;;;;;;4.71;100.00;101517.44;5281913;28;20032;-71
2023/12/27 07:00:44;;;;;;;24.57;13.17;;;;;;;4.74;100.00;101517.53;5282304;28;20116;-71
2023/12/27 07:03:15;;;;;;;21.60;12.77;;;;;;;4.75;100.00;101514.13;5281949;28;20105;-71
2023/12/27 07:05:46;;;;;;;17.80;12.67;;;;;;;4.82;100.00;101509.94;5285358;28;20476;-71
2023/12/27 07:08:18;;;;;;;17.07;11.90;;;;;;;4.89;100.00;101518.72;5284789;28;20115;-71
2023/12/27 07:10:49;;;;;;;22.33;13.30;;;;;;;4.93;100.00;101521.41;5285515;28;20104;-71
2023/12/27 07:13:20;;;;;;;20.07;13.23;;;;;;;5.00;100.00;101524.13;5285565;28;20063;-71
2023/12/27 07:15:53;;;;;;;17.80;12.57;;;;;;;5.04;100.00;101513.00;5285450;28;20029;-71
2023/12/27 07:18:24;;;;;;;22.08;13.18;;;;;;;5.06;100.00;101509.63;5284323;28;20380;-71
2023/12/27 07:20:55;;;;;;;18.67;13.13;;;;;;;5.14;100.00;101508.94;5285860;28;20087;-70
2023/12/27 07:23:27;;;;;;;24.20;14.60;;;;;;;5.16;100.00;101510.69;5283999;28;20021;-71
2023/12/27 07:26:01;;;;;;;19.93;13.60;;;;;;;5.19;100.00;101512.47;5286011;28;20036;-71
2023/12/27 07:28:32;;;;;;;22.20;14.68;;;;;;;5.23;100.00;101506.50;5284366;28;20031;-70
2023/12/27 07:31:04;;;;;;;22.93;14.80;;;;;;;5.24;100.00;101503.09;5284764;28;20036;-71
2023/12/27 07:33:39;;;;;;;22.70;15.43;;;;;;;5.27;100.00;101508.34;5284960;28;20348;-71
2023/12/27 07:36:10;;;;;;;23.27;15.93;;;;;;;5.30;100.00;101504.09;5284680;28;20056;-70
2023/12/27 07:38:41;;;;;;;22.90;15.93;;;;;;;5.30;100.00;101491.16;5284742;28;20052;-71
2023/12/27 07:41:13;;;;;;;21.33;16.13;;;;;;;5.33;100.00;101497.22;5284475;28;20442;-70
2023/12/27 07:43:44;;;;;;;22.40;16.93;;;;;;;5.37;100.00;101501.63;5284383;28;20033;-71
2023/12/27 07:46:16;;;;;;;22.67;16.53;;;;;;;5.39;100.00;101500.81;5284481;28;20122;-70
2023/12/27 07:48:47;;;;;;;21.20;16.27;;;;;;;5.40;100.00;101504.28;5284654;28;20040;-70
2023/12/27 07:51:18;;;;;;;24.10;16.23;;;;;;;5.41;100.00;101495.66;5283161;28;20077;-71
2023/12/27 07:53:50;;;;;;;24.20;17.03;;;;;;;5.44;100.00;101501.78;5284715;28;20044;-71
2023/12/27 07:56:21;;;;;;;22.60;16.60;;;;;;;5.47;100.00;101488.94;5284960;28;20032;-71
2023/12/27 07:58:53;;;;;;;26.70;16.67;;;;;;;5.50;100.00;101495.00;5284364;28;20468;-71
2023/12/27 08:01:30;;;;;;;21.58;17.05;;;;;;;5.54;100.00;101491.59;5284631;28;20032;-71
2023/12/27 08:04:01;;;;;;;27.48;16.35;;;;;;;5.55;100.00;101477.84;5284269;28;20033;-71
2023/12/27 08:06:33;;;;;;;23.10;16.47;;;;;;;5.62;100.00;101480.59;5284280;28;20434;-71
2023/12/27 08:09:04;;;;;;;25.13;17.13;;;;;;;5.61;100.00;101483.13;5284675;28;20036;-71
2023/12/27 08:11:35;;;;;;;23.83;16.33;;;;;;;5.68;100.00;101484.97;5284236;28;20127;-71
2023/12/27 08:14:07;;;;;;;24.83;16.80;;;;;;;5.69;100.00;101475.53;5283684;28;20141;-71
2023/12/27 08:16:38;;;;;;;28.23;16.30;;;;;;;5.71;100.00;101469.53;5284224;28;20032;-71
2023/12/27 08:19:10;;;;;;;23.60;16.00;;;;;;;5.73;100.00;101473.03;5284041;28;20364;-71
2023/12/27 08:21:41;;;;;;;23.87;16.27;;;;;;;5.80;100.00;101469.69;5284057;28;20048;-70
2023/12/27 08:24:12;;;;;;;25.33;16.37;;;;;;;5.82;100.00;101475.75;5284327;28;20462;-70
2023/12/27 08:26:44;;;;;;;24.20;17.43;;;;;;;5.84;100.00;101455.97;5282797;28;20052;-71
2023/12/27 08:29:15;;;;;;;24.07;15.47;;;;;;;5.88;100.00;101456.03;5284321;28;20043;-71
2023/12/27 08:31:47;;;;;;;23.53;15.53;;;;;;;5.89;100.00;101443.09;5284282;28;20044;-71
2023/12/27 08:34:19;;;;;;;24.77;16.37;;;;;;;5.93;100.00;101434.56;5283763;28;20082;-71
2023/12/27 08:36:51;;;;;;;23.95;15.68;;;;;;;5.96;100.00;101437.22;5283949;28;20722;-71
2023/12/27 08:39:22;;;;;;;23.47;15.47;;;;;;;6.00;100.00;101438.16;5283764;28;20102;-70
2023/12/27 08:41:54;;;;;;;22.17;14.40;;;;;;;6.00;100.00;101432.97;5283428;28;20154;-71
2023/12/27 08:44:25;;;;;;;22.73;14.70;;;;;;;6.04;100.00;101429.59;5282600;28;20517;-71
2023/12/27 08:46:57;;;;;;;25.07;14.63;;;;;;;6.08;100.00;101428.78;5283628;28;20024;-71
2023/12/27 08:49:28;;;;;;;22.90;12.70;;;;;;;6.14;100.00;101434.06;5283834;28;20028;-71
2023/12/27 08:51:59;;;;;;;17.13;12.73;;;;;;;6.18;100.00;101433.28;5283869;28;20028;-71
2023/12/27 08:54:31;;;;;;;19.43;13.37;;;;;;;6.20;100.00;101433.31;5282846;28;20024;-71
2023/12/27 08:57:03;;;;;;;19.52;12.65;;;;;;;6.22;100.00;101415.22;5283227;28;20127;-72
2023/12/27 08:59:34;;;;;;;15.63;11.37;;;;;;;6.26;100.00;101422.16;5283375;28;20024;-71
2023/12/27 09:02:06;;;;;;;19.07;10.67;;;;;;;6.28;100.00;101421.34;5283307;28;20039;-71
2023/12/27 09:04:37;;;;;;;16.93;10.90;;;;;;;6.30;100.00;101416.19;5281870;28;20490;-71
2023/12/27 09:07:08;;;;;;;18.47;11.70;;;;;;;6.33;100.00;101421.41;5283241;28;20032;-72
2023/12/27 09:09:40;;;;;;;13.70;9.73;;;;;;;6.32;100.00;101406.72;5281970;28;20036;-71
2023/12/27 09:12:11;;;;;;;14.87;10.30;;;;;;;6.34;100.00;101411.09;5283266;28;20037;-71
2023/12/27 09:14:42;;;;;;;17.77;11.73;;;;;;;6.34;100.00;101424.03;5283307;28;20027;-71
2023/12/27 09:17:15;;;;;;;18.77;11.73;;;;;;;6.38;100.00;101422.34;5281401;28;20032;-71
2023/12/27 09:19:47;;;;;;;15.80;10.82;;;;;;;6.36;100.00;101404.19;5281890;28;20110;-71
2023/12/27 09:22:18;;;;;;;18.23;10.50;;;;;;;6.33;100.00;101396.38;5282483;28;20055;-71
2023/12/27 09:24:49;;;;;;;16.77;10.27;;;;;;;6.36;100.00;101403.34;5283057;28;20035;-71
2023/12/27 09:27:24;;;;;;;17.33;10.90;;;;;;;6.37;100.00;101402.47;5281998;28;20021;-71
2023/12/27 09:29:56;;;;;;;16.92;11.20;;;;;;;6.38;100.00;101401.63;5282839;28;20032;-70
2023/12/27 09:32:27;;;;;;;19.07;11.13;;;;;;;6.39;100.00;101400.75;5282292;28;20395;-71
2023/12/27 09:34:58;;;;;;;16.80;9.43;;;;;;;6.44;100.00;101398.25;5282970;28;20044;-71
2023/12/27 09:37:30;;;;;;;17.03;9.70;;;;;;;6.47;100.00;101398.28;5282766;28;20135;-71
2023/12/27 09:40:03;;;;;;;15.40;9.77;;;;;;;6.49;100.00;101394.03;5282561;28;20032;-71
2023/12/27 09:42:37;;;;;;;13.35;9.20;;;;;;;6.53;100.00;101386.28;5283038;28;20448;-70
2023/12/27 09:45:14;;;;;;;14.93;9.23;;;;;;;6.60;100.00;101386.38;5282532;28;20116;-71
2023/12/27 09:47:48;;;;;;;13.70;9.20;;;;;;;6.67;100.00;101385.63;5282813;28;20036;-70
2023/12/27 09:50:20;;;;;;;13.02;9.23;;;;;;;6.74;100.00;101374.47;5282464;28;20458;-71
2023/12/27 09:52:53;;;;;;;15.43;8.57;;;;;;;6.81;100.00;101384.06;5282537;28;20063;-71
2023/12/27 09:55:25;;;;;;;13.85;9.00;;;;;;;6.88;100.00;101372.91;5281027;28;20036;-71
2023/12/27 09:57:57;;;;;;;10.70;7.57;;;;;;;6.94;100.00;101373.00;5282466;28;20036;-71
2023/12/27 10:00:32;;;;;;;12.75;7.85;;;;;;;7.01;100.00;101380.84;5282278;28;20130;-71
2023/12/27 10:03:08;;;;;;;9.80;6.57;;;;;;;7.06;100.00;101366.22;5282460;28;20029;-71
2023/12/27 10:05:54;;;;;;;11.95;6.40;;;;;;;7.15;100.00;101371.50;5282499;28;20021;-71
2023/12/27 10:08:25;;;;;;;8.88;5.75;;;;;;;7.19;100.00;101380.19;5282674;28;20487;-71
2023/12/27 10:10:57;;;;;;;8.03;5.17;;;;;;;7.24;100.00;101381.09;5282245;28;20064;-71
2023/12/27 10:13:31;;;;;;;8.33;4.87;;;;;;;7.31;100.00;101364.75;5282199;28;20029;-71
2023/12/27 10:16:04;;;;;;;6.57;4.57;;;;;;;7.38;100.00;101369.13;5282199;28;20486;-71
2023/12/27 10:18:35;;;;;;;5.78;3.83;;;;;;;7.44;100.00;101360.56;5282166;28;20124;-71
2023/12/27 10:21:06;;;;;;;6.27;3.53;;;;;;;7.49;100.00;101362.31;5282429;28;20378;-71
2023/12/27 10:23:38;;;;;;;9.83;3.97;;;;;;;7.58;100.00;101366.75;5281846;28;20063;-71
2023/12/27 10:26:09;;;;;;;5.50;2.77;;;;;;;7.63;100.00;101361.56;5282643;28;20086;-71
2023/12/27 10:28:42;;;;;;;6.63;3.07;;;;;;;7.71;100.00;101353.84;5281994;28;20380;-71
2023/12/27 10:31:14;;;;;;;4.65;2.13;;;;;;;7.76;100.00;101359.94;5280686;28;20037;-71
2023/12/27 10:33:46;;;;;;;7.37;2.77;;;;;;;7.82;100.00;101334.94;5282458;28;20044;-71
2023/12/27 10:36:17;;;;;;;7.07;2.22;;;;;;;7.88;100.00;101339.28;5281572;28;20122;-72
2023/12/27 10:38:49;;;;;;;6.67;2.30;;;;;;;7.90;100.00;101336.69;5283682;28;20029;-71
2023/12/27 10:41:22;;;;;;;4.47;2.00;;;;;;;7.93;100.00;101337.59;5284485;28;20097;-71
2023/12/27 10:43:53;;;;;;;6.20;2.33;;;;;;;7.94;100.00;101331.53;5285795;28;20036;-71
2023/12/27 10:46:25;;;;;;;5.73;2.57;;;;;;;7.96;100.00;101329.81;5285858;28;20032;-71
2023/12/27 10:49:02;;;;;;;5.47;2.70;;;;;;;8.00;100.00;101328.09;5285749;28;20120;-71
2023/12/27 10:51:38;;;;;;;6.07;2.00;;;;;;;8.03;100.00;101333.31;5285725;28;20032;-71
2023/12/27 10:54:13;;;;;;;8.02;3.08;;;;;;;8.10;100.00;101329.03;5285657;28;20177;-72
2023/12/27 10:56:47;;;;;;;9.07;2.17;;;;;;;8.11;100.00;101317.78;5284460;28;20036;-72
2023/12/27 10:59:18;;;;;;;8.63;2.40;;;;;;;8.11;100.00;101318.66;5285518;28;20044;-72
2023/12/27 11:01:50;;;;;;;5.87;2.73;;;;;;;8.12;100.00;101310.00;5285570;28;20340;-72
2023/12/27 11:04:23;;;;;;;6.33;2.63;;;;;;;8.18;100.00;101317.84;5286152;28;20115;-72
2023/12/27 11:06:55;;;;;;;8.57;2.95;;;;;;;8.17;100.00;101307.44;5285717;28;20028;-71
2023/12/27 11:09:28;;;;;;;9.10;2.58;;;;;;;8.20;100.00;101284.09;5285681;28;20426;-71
2023/12/27 11:12:01;;;;;;;6.82;2.97;;;;;;;8.22;100.00;101292.75;5284943;28;20032;-72
2023/12/27 11:14:35;;;;;;;18.90;3.42;;;;;;;8.22;100.00;101298.81;5285352;28;20033;-73
2023/12/27 11:17:08;;;;;;;6.78;2.53;;;;;;;8.21;100.00;101302.28;5285331;28;20040;-73
2023/12/27 11:19:40;;;;;;;6.45;2.85;;;;;;;8.22;100.00;101305.72;5284754;28;20056;-72
2023/12/27 11:22:12;;;;;;;7.43;2.55;;;;;;;8.24;100.00;101284.97;5285389;28;20059;-72
2023/12/27 11:24:43;;;;;;;6.07;3.10;;;;;;;8.25;100.00;101274.59;5285591;28;20376;-72
2023/12/27 11:27:19;;;;;;;8.40;3.40;;;;;;;8.30;100.00;101283.25;5285012;28;20029;-73
2023/12/27 11:29:50;;;;;;;8.27;2.83;;;;;;;8.30;100.00;101278.06;5284691;28;20032;-72
2023/12/27 11:32:21;;;;;;;6.97;2.73;;;;;;;8.33;100.00;101267.69;5286688;28;20098;-72